createdAt,value
2022-11-21T00:00:29.036Z,4.85
2022-11-21T00:02:59.946Z,4.85
2022-11-21T00:05:26.403Z,4.84
2022-11-21T00:07:52.813Z,4.83
2022-11-21T00:10:19.259Z,4.78
2022-11-21T00:12:45.651Z,4.77
2022-11-21T00:15:12.204Z,4.73
2022-11-21T00:17:38.632Z,4.69
2022-11-21T00:20:05.545Z,4.68
2022-11-21T00:22:32.150Z,4.66
2022-11-21T00:24:59.131Z,4.65
2022-11-21T00:27:25.538Z,4.65
2022-11-21T00:29:51.970Z,4.62
2022-11-21T00:32:18.345Z,4.61
2022-11-21T00:34:44.721Z,4.65
2022-11-21T00:37:11.167Z,4.61
2022-11-21T00:39:37.541Z,4.65
2022-11-21T00:42:04.131Z,4.65
2022-11-21T00:44:30.634Z,4.69
2022-11-21T00:46:57.250Z,4.69
2022-11-21T00:49:23.716Z,4.64
2022-11-21T00:51:50.112Z,4.66
2022-11-21T00:54:16.498Z,4.62
2022-11-21T00:56:42.965Z,4.61
2022-11-21T00:59:09.555Z,4.60
2022-11-21T01:01:35.958Z,4.58
2022-11-21T01:04:02.406Z,4.58
2022-11-21T01:06:28.821Z,4.58
2022-11-21T01:08:55.233Z,4.60
2022-11-21T01:11:21.908Z,4.61
2022-11-21T01:13:49.332Z,4.60
2022-11-21T01:16:19.014Z,4.61
2022-11-21T01:18:46.112Z,4.62
2022-11-21T01:21:19.099Z,4.64
2022-11-21T01:23:45.845Z,4.65
2022-11-21T01:26:15.611Z,4.68
2022-11-21T01:28:42.279Z,4.66
2022-11-21T01:31:18.810Z,4.66
2022-11-21T01:33:46.180Z,4.66
2022-11-21T01:36:18.480Z,4.66
2022-11-21T01:38:47.863Z,4.65
2022-11-21T01:41:17.523Z,4.65
2022-11-21T01:43:44.361Z,4.67
2022-11-21T01:46:14.875Z,4.66
2022-11-21T01:48:53.679Z,4.68
2022-11-21T01:51:20.118Z,4.67
2022-11-21T01:54:11.961Z,4.66
2022-11-21T01:56:46.868Z,4.61
2022-11-21T01:59:20.602Z,4.63
2022-11-21T02:01:49.444Z,4.63
2022-11-21T02:04:16.037Z,4.62
2022-11-21T02:06:43.447Z,4.63
2022-11-21T02:09:09.892Z,4.63
2022-11-21T02:11:47.801Z,4.63
2022-11-21T02:14:14.457Z,4.62
2022-11-21T02:16:40.939Z,4.64
2022-11-21T02:19:15.267Z,4.65
2022-11-21T02:21:52.828Z,4.64
2022-11-21T02:24:27.438Z,4.64
2022-11-21T02:26:54.160Z,4.60
2022-11-21T02:29:20.719Z,4.58
2022-11-21T02:31:47.242Z,4.58
2022-11-21T02:34:13.748Z,4.58
2022-11-21T02:36:44.126Z,4.54
2022-11-21T02:39:16.016Z,4.47
2022-11-21T02:41:51.534Z,4.40
2022-11-21T02:44:34.214Z,4.32
2022-11-21T02:47:00.613Z,4.27
2022-11-21T02:49:53.839Z,4.24
2022-11-21T02:52:20.211Z,4.17
2022-11-21T02:54:46.595Z,4.15
2022-11-21T02:57:12.987Z,4.13
2022-11-21T02:59:39.433Z,4.09
2022-11-21T03:02:05.833Z,4.03
2022-11-21T03:04:32.338Z,3.94
2022-11-21T03:06:58.876Z,3.87
2022-11-21T03:09:25.465Z,3.85
2022-11-21T03:11:51.838Z,3.81
2022-11-21T03:14:18.217Z,3.75
2022-11-21T03:16:44.593Z,3.69
2022-11-21T03:19:10.999Z,3.65
2022-11-21T03:21:37.407Z,3.62
2022-11-21T03:24:04.158Z,3.58
2022-11-21T03:26:30.559Z,3.55
2022-11-21T03:28:56.945Z,3.52
2022-11-21T03:31:23.347Z,3.52
2022-11-21T03:33:49.732Z,3.46
2022-11-21T03:36:16.117Z,3.45
2022-11-21T03:38:42.691Z,3.43
2022-11-21T03:41:29.045Z,3.41
2022-11-21T03:43:56.895Z,3.39
2022-11-21T03:46:23.442Z,3.34
2022-11-21T03:48:49.849Z,3.38
2022-11-21T03:51:16.277Z,3.40
2022-11-21T03:53:42.711Z,3.39
2022-11-21T03:56:09.106Z,3.40
2022-11-21T03:58:35.575Z,3.40
2022-11-21T04:01:02.050Z,3.41
2022-11-21T04:03:28.504Z,3.40
2022-11-21T04:05:54.903Z,3.41
2022-11-21T04:08:21.369Z,3.43
2022-11-21T04:10:49.466Z,3.40
2022-11-21T04:13:16.027Z,3.44
2022-11-21T04:15:43.142Z,3.45
2022-11-21T04:18:09.749Z,3.47
2022-11-21T04:20:36.478Z,3.47
2022-11-21T04:23:02.908Z,3.46
2022-11-21T04:25:29.629Z,3.49
2022-11-21T04:27:57.292Z,3.53
2022-11-21T04:30:23.703Z,3.56
2022-11-21T04:32:56.833Z,3.60
2022-11-21T04:35:24.666Z,3.62
2022-11-21T04:37:51.939Z,3.64
2022-11-21T04:40:18.555Z,3.58
2022-11-21T04:42:47.070Z,3.69
2022-11-21T04:45:15.405Z,3.71
2022-11-21T04:47:46.411Z,3.74
2022-11-21T04:50:15.530Z,3.74
2022-11-21T04:52:42.571Z,3.78
2022-11-21T04:55:10.032Z,3.80
2022-11-21T04:57:36.490Z,3.83
2022-11-21T05:00:03.463Z,3.87
2022-11-21T05:02:29.848Z,3.91
2022-11-21T05:04:56.245Z,3.93
2022-11-21T05:07:22.686Z,3.96
2022-11-21T05:09:49.161Z,3.97
2022-11-21T05:12:34.166Z,4.01
2022-11-21T05:15:00.599Z,4.04
2022-11-21T05:17:29.998Z,4.08
2022-11-21T05:19:56.400Z,4.14
2022-11-21T05:22:22.800Z,4.15
2022-11-21T05:24:49.240Z,4.17
2022-11-21T05:27:15.660Z,4.20
2022-11-21T05:29:42.139Z,4.22
2022-11-21T05:32:08.617Z,4.25
2022-11-21T05:34:35.099Z,4.26
2022-11-21T05:37:01.517Z,4.29
2022-11-21T05:39:28.126Z,4.33
2022-11-21T05:41:59.788Z,4.36
2022-11-21T05:44:29.355Z,4.41
2022-11-21T05:46:55.949Z,4.42
2022-11-21T05:49:22.416Z,4.43
2022-11-21T05:51:48.866Z,4.46
2022-11-21T05:54:15.631Z,4.47
2022-11-21T05:56:42.081Z,4.47
2022-11-21T05:59:10.864Z,4.46
2022-11-21T06:01:56.513Z,4.44
2022-11-21T06:04:22.896Z,4.46
2022-11-21T06:06:49.324Z,4.43
2022-11-21T06:09:15.723Z,4.46
2022-11-21T06:11:42.131Z,4.48
2022-11-21T06:14:08.509Z,4.47
2022-11-21T06:16:34.888Z,4.50
2022-11-21T06:19:01.278Z,4.50
2022-11-21T06:21:29.203Z,4.50
2022-11-21T06:23:58.062Z,4.52
2022-11-21T06:26:26.359Z,4.51
2022-11-21T06:28:52.761Z,4.53
2022-11-21T06:31:22.181Z,4.52
2022-11-21T06:33:52.628Z,4.52
2022-11-21T06:36:19.513Z,4.54
2022-11-21T06:38:46.363Z,4.54
2022-11-21T06:41:15.268Z,4.55
2022-11-21T06:43:42.362Z,4.56
2022-11-21T06:46:09.219Z,4.57
2022-11-21T06:48:37.242Z,4.55
2022-11-21T06:51:09.078Z,4.56
2022-11-21T06:53:35.477Z,4.54
2022-11-21T06:56:02.615Z,4.55
2022-11-21T06:58:29.424Z,4.54
2022-11-21T07:00:56.237Z,4.52
2022-11-21T07:03:22.953Z,4.53
2022-11-21T07:05:50.178Z,4.50
2022-11-21T07:08:16.591Z,4.47
2022-11-21T07:11:03.375Z,4.47
2022-11-21T07:13:29.985Z,4.50
2022-11-21T07:16:02.255Z,4.46
2022-11-21T07:18:29.140Z,4.41
2022-11-21T07:21:04.102Z,4.40
2022-11-21T07:23:31.641Z,4.38
2022-11-21T07:26:02.431Z,4.40
2022-11-21T07:28:29.916Z,4.39
2022-11-21T07:31:01.031Z,4.39
2022-11-21T07:33:27.664Z,4.39
2022-11-21T07:35:58.099Z,4.41
2022-11-21T07:38:25.309Z,4.42
2022-11-21T07:40:52.169Z,4.44
2022-11-21T07:43:19.014Z,4.40
2022-11-21T07:45:45.455Z,4.42
2022-11-21T07:48:12.924Z,4.49
2022-11-21T07:50:39.952Z,4.51
2022-11-21T07:53:09.236Z,4.58
2022-11-21T07:55:40.415Z,4.64
2022-11-21T07:58:13.391Z,4.63
2022-11-21T08:00:42.866Z,4.74
2022-11-21T08:03:11.970Z,4.76
2022-11-21T08:05:40.278Z,4.80
2022-11-21T08:08:07.175Z,4.81
2022-11-21T08:10:34.044Z,4.85
2022-11-21T08:13:00.476Z,4.86
2022-11-21T08:15:26.876Z,4.91
2022-11-21T08:17:53.333Z,4.94
2022-11-21T08:20:19.770Z,4.98
2022-11-21T08:22:46.155Z,5.00
2022-11-21T08:25:12.708Z,5.07
2022-11-21T08:27:39.815Z,5.08
2022-11-21T08:30:07.990Z,5.13
2022-11-21T08:32:34.589Z,5.17
2022-11-21T08:35:01.124Z,5.21
2022-11-21T08:37:29.407Z,5.27
2022-11-21T08:39:58.853Z,5.34
2022-11-21T08:42:25.983Z,5.31
2022-11-21T08:44:52.703Z,5.34
2022-11-21T08:47:20.511Z,5.34
2022-11-21T08:49:47.595Z,5.39
2022-11-21T08:52:17.121Z,5.41
2022-11-21T08:54:44.535Z,5.46
2022-11-21T08:57:11.161Z,5.50
2022-11-21T08:59:37.564Z,5.57
2022-11-21T09:02:04.042Z,5.63
2022-11-21T09:04:30.679Z,5.71
2022-11-21T09:06:57.304Z,5.82
2022-11-21T09:09:25.500Z,5.90
2022-11-21T09:11:52.202Z,5.92
2022-11-21T09:14:37.423Z,5.96
2022-11-21T09:17:22.280Z,5.95
2022-11-21T09:19:49.048Z,5.90
2022-11-21T09:22:15.427Z,5.86
2022-11-21T09:24:41.880Z,5.89
2022-11-21T09:27:08.256Z,5.92
2022-11-21T09:29:34.657Z,5.89
2022-11-21T09:32:01.136Z,5.88
2022-11-21T09:34:27.786Z,5.88
2022-11-21T09:36:55.442Z,5.84
2022-11-21T09:39:22.141Z,5.80
2022-11-21T09:41:54.381Z,5.78
2022-11-21T09:44:33.004Z,5.82
2022-11-21T09:47:12.505Z,5.85
2022-11-21T09:49:43.980Z,5.83
2022-11-21T09:52:12.257Z,5.79
2022-11-21T09:54:54.272Z,5.75
2022-11-21T09:57:24.130Z,5.71
2022-11-21T09:59:52.398Z,5.76
2022-11-21T10:02:21.382Z,5.85
2022-11-21T10:04:49.007Z,6.20
2022-11-21T10:07:26.031Z,6.53
2022-11-21T10:10:12.470Z,6.84
2022-11-21T10:12:55.684Z,7.21
2022-11-21T10:15:54.784Z,7.24
2022-11-21T10:18:55.700Z,7.13
2022-11-21T10:21:51.442Z,7.03
2022-11-21T10:24:40.688Z,6.91
2022-11-21T10:27:24.230Z,6.80
2022-11-21T10:29:58.983Z,6.78
2022-11-21T10:32:36.475Z,6.76
2022-11-21T10:35:14.120Z,6.80
2022-11-21T10:37:46.346Z,6.80
2022-11-21T10:40:22.010Z,6.80
2022-11-21T10:43:27.189Z,6.92
2022-11-21T10:45:54.291Z,6.96
2022-11-21T10:48:20.724Z,7.02
2022-11-21T10:51:10.969Z,7.30
2022-11-21T10:53:55.780Z,7.33
2022-11-21T10:56:23.114Z,7.33
2022-11-21T10:58:52.225Z,7.52
2022-11-21T11:01:30.815Z,7.90
2022-11-21T11:04:26.232Z,8.41
2022-11-21T11:06:51.506Z,8.81
2022-11-21T11:09:24.054Z,9.07
2022-11-21T11:11:50.617Z,8.90
2022-11-21T11:14:28.892Z,8.55
2022-11-21T11:16:55.700Z,8.28
2022-11-21T11:19:35.457Z,8.47
2022-11-21T11:22:05.056Z,8.88
2022-11-21T11:24:31.456Z,9.20
2022-11-21T11:27:02.658Z,9.08
2022-11-21T11:29:35.224Z,9.14
2022-11-21T11:32:16.413Z,8.93
2022-11-21T11:35:00.372Z,8.86
2022-11-21T11:37:49.254Z,8.85
2022-11-21T11:40:34.534Z,8.48
2022-11-21T11:43:44.336Z,8.22
2022-11-21T11:46:36.226Z,7.95
2022-11-21T11:49:24.605Z,7.78
2022-11-21T11:51:54.900Z,7.69
2022-11-21T11:54:34.375Z,7.66
2022-11-21T11:57:01.144Z,7.81
2022-11-21T11:59:40.011Z,7.80
2022-11-21T12:02:16.709Z,7.75
2022-11-21T12:04:51.046Z,7.79
2022-11-21T12:10:23.570Z,7.86
2022-11-21T12:13:05.433Z,8.05
2022-11-21T12:15:52.552Z,8.73
2022-11-21T12:18:19.354Z,9.34
2022-11-21T12:20:52.284Z,9.67
2022-11-21T12:23:19.884Z,9.98
2022-11-21T12:25:59.555Z,10.13
2022-11-21T12:28:31.982Z,9.97
2022-11-21T12:31:09.230Z,9.78
2022-11-21T12:33:46.971Z,9.69
2022-11-21T12:36:35.594Z,9.49
2022-11-21T12:39:33.953Z,9.44
2022-11-21T12:42:38.289Z,9.25
2022-11-21T12:45:07.439Z,9.05
2022-11-21T12:48:21.799Z,8.92
2022-11-21T12:51:46.024Z,8.75
2022-11-21T12:54:37.796Z,8.59
2022-11-21T12:57:14.102Z,8.45
2022-11-21T13:00:02.097Z,8.31
2022-11-21T13:02:59.217Z,8.21
2022-11-21T13:05:32.613Z,8.09
2022-11-21T13:08:24.161Z,8.01
2022-11-21T13:11:27.569Z,7.97
2022-11-21T13:14:07.214Z,8.00
2022-11-21T13:16:36.998Z,8.02
2022-11-21T13:19:23.078Z,8.11
2022-11-21T13:21:53.080Z,8.37
2022-11-21T13:24:44.559Z,8.66
2022-11-21T13:27:40.364Z,8.96
2022-11-21T13:30:06.790Z,9.39
2022-11-21T13:32:44.004Z,9.92
2022-11-21T13:35:16.535Z,10.49
2022-11-21T13:37:52.450Z,11.03
2022-11-21T13:40:27.851Z,11.47
2022-11-21T13:45:58.743Z,12.23
2022-11-21T13:48:31.280Z,12.49
2022-11-21T13:51:12.698Z,12.36
2022-11-21T13:53:57.599Z,12.16
2022-11-21T13:56:35.058Z,11.98
2022-11-21T13:59:28.512Z,12.10
2022-11-21T14:02:22.801Z,12.16
2022-11-21T14:05:34.150Z,12.20
2022-11-21T14:08:22.521Z,12.35
2022-11-21T14:10:52.641Z,12.50
2022-11-21T14:13:33.213Z,12.53
2022-11-21T14:16:21.165Z,12.41
2022-11-21T14:18:47.909Z,12.36
2022-11-21T14:21:30.860Z,12.25
2022-11-21T14:24:04.170Z,12.06
2022-11-21T14:26:40.324Z,11.80
2022-11-21T14:29:28.250Z,11.47
2022-11-21T14:31:55.747Z,11.17
2022-11-21T14:34:31.145Z,10.85
2022-11-21T14:36:59.756Z,10.57
2022-11-21T14:39:39.888Z,10.29
2022-11-21T14:42:15.009Z,9.92
2022-11-21T14:44:42.302Z,9.61
2022-11-21T14:47:18.447Z,9.41
2022-11-21T14:49:55.895Z,9.18
2022-11-21T14:52:31.438Z,8.93
2022-11-21T14:55:28.559Z,8.71
2022-11-21T14:57:47.132Z,8.46
2022-11-21T15:00:43.382Z,8.30
2022-11-21T15:03:03.257Z,8.13
2022-11-21T15:06:03.985Z,8.00
2022-11-21T15:11:11.536Z,7.73
2022-11-21T15:13:58.527Z,7.59
2022-11-21T15:16:25.410Z,7.52
2022-11-21T15:18:51.856Z,7.41
2022-11-21T15:21:18.353Z,7.26
2022-11-21T15:23:45.387Z,7.21
2022-11-21T15:26:32.996Z,7.09
2022-11-21T15:29:00.876Z,6.96
2022-11-21T15:31:27.950Z,6.86
2022-11-21T15:37:03.585Z,6.73
2022-11-21T15:39:30.342Z,6.66
2022-11-21T15:42:35.910Z,6.56
2022-11-21T15:45:19.896Z,6.46
2022-11-21T15:47:47.036Z,6.37
2022-11-21T15:50:14.215Z,6.33
2022-11-21T15:52:48.765Z,6.28
2022-11-21T15:55:24.633Z,6.23
2022-11-21T15:57:51.113Z,6.21
2022-11-21T16:00:18.613Z,6.17
2022-11-21T16:02:45.070Z,6.14
2022-11-21T16:05:13.192Z,6.10
2022-11-21T16:07:40.850Z,6.07
2022-11-21T16:10:14.885Z,6.04
2022-11-21T16:12:47.114Z,5.93
2022-11-21T16:15:14.129Z,5.82
2022-11-21T16:17:41.586Z,5.70
2022-11-21T16:20:08.456Z,5.62
2022-11-21T16:22:34.847Z,5.60
2022-11-21T16:25:01.218Z,5.52
2022-11-21T16:27:27.819Z,5.46
2022-11-21T16:29:54.214Z,5.43
2022-11-21T16:32:20.611Z,5.41
2022-11-21T16:34:47.201Z,5.36
2022-11-21T16:37:14.388Z,5.33
2022-11-21T16:39:41.810Z,5.28
2022-11-21T16:42:10.255Z,5.21
2022-11-21T16:44:36.648Z,5.15
2022-11-21T16:47:08.051Z,5.11
2022-11-21T16:49:36.235Z,4.98
2022-11-21T16:52:02.734Z,4.96
2022-11-21T16:54:29.123Z,4.90
2022-11-21T16:56:55.516Z,4.80
2022-11-21T16:59:21.904Z,4.75
2022-11-21T17:01:48.463Z,4.71
2022-11-21T17:04:17.517Z,4.67
2022-11-21T17:06:45.424Z,4.65
2022-11-21T17:09:12.282Z,4.62
2022-11-21T17:11:38.729Z,4.53
2022-11-21T17:14:06.586Z,4.47
2022-11-21T17:16:34.335Z,4.41
2022-11-21T17:19:01.996Z,4.35
2022-11-21T17:21:29.372Z,4.30
2022-11-21T17:23:55.952Z,4.27
2022-11-21T17:26:24.539Z,4.27
2022-11-21T17:28:58.562Z,4.22
2022-11-21T17:31:25.456Z,4.22
2022-11-21T17:33:52.610Z,4.19
2022-11-21T17:36:21.390Z,4.20
2022-11-21T17:38:48.181Z,4.18
2022-11-21T17:41:18.022Z,4.13
2022-11-21T17:43:45.158Z,4.04
2022-11-21T17:46:19.855Z,4.04
2022-11-21T17:48:54.325Z,4.03
2022-11-21T17:51:25.354Z,4.00
2022-11-21T17:53:52.710Z,4.01
2022-11-21T17:56:21.594Z,4.00
2022-11-21T17:58:48.352Z,4.03
2022-11-21T18:01:19.541Z,4.06
2022-11-21T18:03:47.183Z,4.07
2022-11-21T18:06:15.691Z,4.14
2022-11-21T18:08:44.789Z,4.15
2022-11-21T18:11:13.922Z,4.16
2022-11-21T18:13:41.013Z,4.20
2022-11-21T18:16:10.684Z,4.20
2022-11-21T18:18:37.735Z,4.20
2022-11-21T18:21:12.444Z,4.19
2022-11-21T18:23:39.108Z,4.20
2022-11-21T18:26:21.184Z,4.18
2022-11-21T18:29:07.203Z,4.17
2022-11-21T18:31:39.247Z,4.13
2022-11-21T18:34:06.712Z,4.06
2022-11-21T18:36:33.578Z,4.11
2022-11-21T18:39:07.159Z,4.09
2022-11-21T18:41:38.764Z,4.04
2022-11-21T18:44:06.507Z,4.05
2022-11-21T18:46:35.759Z,4.08
2022-11-21T18:49:05.891Z,4.11
2022-11-21T18:51:33.900Z,4.13
2022-11-21T18:54:07.185Z,4.06
2022-11-21T18:56:34.337Z,4.05
2022-11-21T18:59:00.994Z,4.04
2022-11-21T19:01:29.358Z,3.98
2022-11-21T19:03:56.316Z,3.91
2022-11-21T19:06:24.807Z,3.83
2022-11-21T19:08:55.965Z,3.81
2022-11-21T19:11:24.802Z,3.81
2022-11-21T19:13:52.486Z,3.81
2022-11-21T19:16:21.624Z,3.81
2022-11-21T19:19:11.494Z,3.83
2022-11-21T19:21:38.815Z,3.78
2022-11-21T19:24:09.305Z,3.77
2022-11-21T19:26:35.765Z,3.77
2022-11-21T19:29:02.217Z,3.80
2022-11-21T19:31:28.702Z,3.79
2022-11-21T19:33:55.178Z,3.78
2022-11-21T19:36:23.649Z,3.80
2022-11-21T19:38:51.711Z,3.80
2022-11-21T19:41:28.001Z,3.78
2022-11-21T19:43:57.390Z,3.76
2022-11-21T19:46:26.588Z,3.75
2022-11-21T19:48:55.796Z,3.73
2022-11-21T19:51:24.914Z,3.73
2022-11-21T19:53:51.352Z,3.75
2022-11-21T19:56:20.475Z,3.77
2022-11-21T19:58:47.785Z,3.78
2022-11-21T20:01:16.738Z,3.81
2022-11-21T20:03:45.216Z,3.83
2022-11-21T20:06:23.011Z,3.85
2022-11-21T20:08:51.940Z,3.87
2022-11-21T20:11:18.393Z,3.83
2022-11-21T20:13:45.558Z,3.92
2022-11-21T20:16:26.658Z,3.93
2022-11-21T20:18:55.913Z,3.96
2022-11-21T20:21:22.425Z,3.97
2022-11-21T20:23:48.923Z,4.02
2022-11-21T20:26:17.843Z,4.04
2022-11-21T20:28:44.359Z,4.04
2022-11-21T20:31:13.691Z,4.07
2022-11-21T20:33:42.809Z,4.10
2022-11-21T20:36:14.279Z,4.11
2022-11-21T20:38:41.703Z,4.10
2022-11-21T20:41:08.318Z,4.07
2022-11-21T20:44:03.174Z,4.09
2022-11-21T20:46:21.777Z,4.12
2022-11-21T20:48:48.419Z,4.13
2022-11-21T20:54:03.907Z,4.22
2022-11-21T20:56:35.126Z,4.28
2022-11-21T20:59:02.253Z,4.31
2022-11-21T21:01:29.178Z,4.34
2022-11-21T21:03:55.729Z,4.37
2022-11-21T21:06:24.139Z,4.38
2022-11-21T21:08:51.629Z,4.40
2022-11-21T21:11:50.459Z,4.41
2022-11-21T21:14:09.680Z,4.41
2022-11-21T21:16:36.228Z,4.37
2022-11-21T21:19:02.826Z,4.36
2022-11-21T21:21:30.647Z,4.36
2022-11-21T21:24:02.080Z,4.34
2022-11-21T21:26:30.156Z,4.35
2022-11-21T21:28:58.030Z,4.31
2022-11-21T21:31:24.533Z,4.35
2022-11-21T21:33:50.984Z,4.38
2022-11-21T21:36:22.021Z,4.42
2022-11-21T21:38:58.764Z,4.47
2022-11-21T21:41:27.318Z,4.50
2022-11-21T21:43:55.062Z,4.51
2022-11-21T21:46:23.608Z,4.53
2022-11-21T21:48:53.066Z,4.51
2022-11-21T21:51:22.146Z,4.50
2022-11-21T21:53:49.780Z,4.43
2022-11-21T21:56:17.638Z,4.48
2022-11-21T21:58:46.148Z,4.46
2022-11-21T22:01:17.024Z,4.48
2022-11-21T22:03:45.008Z,4.46
2022-11-21T22:06:16.724Z,4.43
2022-11-21T22:08:44.270Z,4.43
2022-11-21T22:11:13.708Z,4.46
2022-11-21T22:13:41.877Z,4.45
2022-11-21T22:16:11.070Z,4.47
2022-11-21T22:18:38.248Z,4.44
2022-11-21T22:21:21.479Z,4.43
2022-11-21T22:26:34.579Z,4.38
2022-11-21T22:29:01.010Z,4.42
2022-11-21T22:31:30.196Z,4.41
2022-11-21T22:33:57.226Z,4.36
2022-11-21T22:36:23.614Z,4.38
2022-11-21T22:38:53.740Z,4.36
2022-11-21T22:41:22.516Z,4.35
2022-11-21T22:43:53.752Z,4.32
2022-11-21T22:46:20.621Z,4.33
2022-11-21T22:48:48.042Z,4.34
2022-11-21T22:51:17.094Z,4.35
2022-11-21T22:53:45.937Z,4.35
2022-11-21T22:56:12.895Z,4.41
2022-11-21T22:58:40.519Z,4.42
2022-11-21T23:01:14.825Z,4.45
2022-11-21T23:03:42.629Z,4.43
2022-11-21T23:06:14.221Z,4.48
2022-11-21T23:08:41.497Z,4.47
2022-11-21T23:11:13.079Z,4.49
2022-11-21T23:13:41.336Z,4.51
2022-11-21T23:16:08.422Z,4.54
2022-11-21T23:18:35.403Z,4.53
2022-11-21T23:21:02.159Z,4.57
2022-11-21T23:23:28.630Z,4.58
2022-11-21T23:25:55.103Z,4.58
2022-11-21T23:28:22.179Z,4.58
2022-11-21T23:30:49.423Z,4.42
2022-11-21T23:33:16.345Z,4.58
2022-11-21T23:35:43.633Z,4.61
2022-11-21T23:38:10.945Z,4.61
2022-11-21T23:40:37.388Z,4.61
2022-11-21T23:43:04.171Z,4.63
2022-11-21T23:45:30.718Z,4.67
2022-11-21T23:47:57.148Z,4.69
2022-11-21T23:50:23.584Z,4.74
2022-11-21T23:52:50.031Z,4.78
2022-11-21T23:55:17.075Z,4.82
2022-11-21T23:57:48.226Z,4.78
